Flemington, WV

3:57 PM EDT on May 27, 2015 (GMT -0400)
Meadland | | Change Station
CLOSE
Current Station
Personal Weather Station
Location: Flemington, WV
Elevation: 1358 ft
Nearby Weather Stations

Elev 1358 ft 39.32 °N, 80.15 °W | Updated 6 minutes ago

Partly Cloudy
Partly Cloudy
83.5 °F
Feels Like 86 °F
N
9.4
Wind Variable Wind from West

Today
High -- | Low -- °F
--% Chance of Precip.
Yesterday
High -- | Low -- °F
Precip. -- in
5:58 AM 8:37 PM
Waxing Gibbous, 69% visible
Pressure 30.11 in
Visibility 10.0 miles
Clouds Few 3300 ft
Heat Index 86 °F
Dew Point 67 °F
Humidity 58%
Rainfall 0.52 in
Snow Depth Not available.
UV 10 out of 12
Pollen 2.10 out of 12
Air Quality Not available.
Flu Activity Sporadic
METAR KCKB 271853Z 23013G20KT 10SM FEW033 27/18 A3015 RMK AO2 SLP195 T02670178

More Conditions Fewer Conditions

Pressure 30.11 in
Visibility 10.0 miles
Clouds Few 3300 ft
Heat Index 86 °F
Dew Point 67 °F
Humidity 58%
Rainfall 0.52 in
Snow Depth Not available.
UV 10 out of 12
Pollen 2.10 out of 12
Air Quality Not available.
Flu Activity Sporadic
METAR KCKB 271853Z 23013G20KT 10SM FEW033 27/18 A3015 RMK AO2 SLP195 T02670178

More Conditions Fewer Conditions

10-Day Weather Forecast

Almanac

Astronomy

May. 27, 2015 Rise Set
Actual Time
Civil Twilight
Nautical Twilight
Astronomical Twilight
Moon
Length of Visible Light
Length of Day
Tomorrow will be .
, % of the Moon is Illuminated

Today's Extremes

State Highs State Lows

Community

WunderPhotos

Upload Photos

1,824,774 photos uploaded!

WunderBlogs® & News

Nearby

Air Quality

  Air Quality AQ Index Pollutant
Not available.

Snow Depth

Station Depth Elevation

Earthquake Activity

City Distance Mag. Time & Date
Minimum magnitude displayed is 2.5.

Coastal Water Temperatures

Place Temperature

Stations

Nearby Weather Stations

Station Location Temp. Windchill Dew Point Humidity Wind Precip. Elev Updated Type